createdAt,value
2018-03-04T00:01:39.152Z,21.50
2018-03-04T00:04:07.823Z,21.40
2018-03-04T00:06:36.168Z,21.40
2018-03-04T00:09:04.477Z,21.40
2018-03-04T00:11:32.756Z,21.30
2018-03-04T00:14:01.435Z,21.30
2018-03-04T00:16:30.150Z,21.20
2018-03-04T00:18:58.446Z,21.20
2018-03-04T00:21:26.749Z,21.20
2018-03-04T00:23:55.064Z,21.20
2018-03-04T00:26:23.754Z,21.10
2018-03-04T00:28:52.426Z,21.10
2018-03-04T00:31:20.754Z,21.10
2018-03-04T00:33:49.035Z,21.10
2018-03-04T00:36:17.344Z,21.10
2018-03-04T00:38:45.638Z,21.00
2018-03-04T00:41:14.307Z,21.00
2018-03-04T00:43:42.610Z,21.00
2018-03-04T00:46:11.299Z,20.90
2018-03-04T00:48:39.627Z,21.00
2018-03-04T00:51:07.916Z,20.90
2018-03-04T00:53:36.503Z,20.90
2018-03-04T00:56:04.788Z,20.90
2018-03-04T00:58:33.068Z,20.90
2018-03-04T01:01:01.411Z,20.90
2018-03-04T01:03:29.688Z,20.80
2018-03-04T01:05:57.971Z,20.80
2018-03-04T01:08:26.280Z,20.70
2018-03-04T01:10:54.959Z,20.70
2018-03-04T01:13:23.246Z,20.70
2018-03-04T01:15:51.951Z,20.70
2018-03-04T01:18:20.252Z,20.70
2018-03-04T01:20:48.535Z,20.80
2018-03-04T01:23:16.831Z,20.80
2018-03-04T01:25:45.143Z,20.70
2018-03-04T01:28:13.823Z,20.70
2018-03-04T01:30:42.511Z,20.70
2018-03-04T01:33:11.194Z,20.70
2018-03-04T01:35:39.614Z,20.70
2018-03-04T01:38:07.894Z,20.60
2018-03-04T01:40:36.179Z,20.70
2018-03-04T01:43:05.207Z,20.60
2018-03-04T01:45:34.107Z,20.60
2018-03-04T01:48:02.913Z,20.60
2018-03-04T01:50:31.218Z,20.60
2018-03-04T01:52:59.529Z,20.50
2018-03-04T01:55:27.827Z,20.50
2018-03-04T01:57:56.115Z,20.60
2018-03-04T02:00:25.179Z,20.50
2018-03-04T02:02:53.875Z,20.40
2018-03-04T02:05:22.447Z,20.40
2018-03-04T02:07:50.754Z,20.40
2018-03-04T02:10:19.655Z,20.40
2018-03-04T02:12:47.951Z,20.40
2018-03-04T02:15:16.574Z,20.40
2018-03-04T02:17:44.856Z,20.40
2018-03-04T02:20:13.148Z,20.40
2018-03-04T02:22:41.872Z,20.30
2018-03-04T02:25:10.178Z,20.30
2018-03-04T02:27:38.487Z,20.30
2018-03-04T02:30:07.186Z,20.30
2018-03-04T02:32:35.863Z,20.30
2018-03-04T02:35:04.579Z,20.30
2018-03-04T02:37:32.869Z,20.30
2018-03-04T02:40:01.146Z,20.30
2018-03-04T02:42:29.443Z,20.30
2018-03-04T02:44:58.147Z,20.20
2018-03-04T02:47:26.431Z,20.30
2018-03-04T02:49:55.118Z,20.20
2018-03-04T02:52:26.411Z,20.20
2018-03-04T02:54:54.934Z,20.20
2018-03-04T02:57:23.514Z,20.20
2018-03-04T02:59:51.818Z,20.20
2018-03-04T03:02:20.122Z,20.20
2018-03-04T03:04:48.428Z,20.10
2018-03-04T03:07:16.814Z,20.20
2018-03-04T03:09:45.184Z,20.10
2018-03-04T03:12:13.492Z,20.10
2018-03-04T03:14:41.766Z,20.10
2018-03-04T03:17:10.448Z,20.10
2018-03-04T03:19:38.766Z,20.10
2018-03-04T03:22:07.051Z,20.10
2018-03-04T03:24:35.366Z,20.10
2018-03-04T03:27:03.642Z,20.10
2018-03-04T03:29:31.938Z,20.00
2018-03-04T03:32:00.648Z,20.00
2018-03-04T03:34:29.200Z,20.00
2018-03-04T03:36:57.514Z,20.00
2018-03-04T03:39:25.818Z,20.00
2018-03-04T03:41:54.103Z,20.00
2018-03-04T03:44:22.415Z,20.00
2018-03-04T03:46:51.102Z,20.00
2018-03-04T03:49:19.796Z,20.00
2018-03-04T03:51:48.531Z,19.90
2018-03-04T03:54:16.812Z,20.00
2018-03-04T03:56:45.095Z,19.90
2018-03-04T03:59:13.398Z,19.90
2018-03-04T04:01:41.971Z,19.90
2018-03-04T04:04:10.259Z,19.90
2018-03-04T04:06:38.550Z,19.90
2018-03-04T04:09:07.236Z,19.90
2018-03-04T04:11:35.933Z,19.90
2018-03-04T04:14:04.220Z,19.90
2018-03-04T04:16:32.501Z,19.90
2018-03-04T04:19:00.799Z,19.80
2018-03-04T04:21:29.095Z,19.90
2018-03-04T04:23:57.492Z,19.90
2018-03-04T04:26:26.170Z,19.80
2018-03-04T04:28:54.451Z,19.80
2018-03-04T04:31:22.784Z,19.80
2018-03-04T04:33:51.067Z,19.80
2018-03-04T04:36:19.352Z,19.80
2018-03-04T04:38:47.644Z,19.80
2018-03-04T04:41:15.956Z,19.80
2018-03-04T04:43:44.256Z,19.80
2018-03-04T04:46:12.547Z,19.80
2018-03-04T04:48:40.834Z,19.70
2018-03-04T04:51:09.155Z,19.70
2018-03-04T04:53:37.712Z,19.70
2018-03-04T04:56:06.000Z,19.70
2018-03-04T04:58:34.276Z,19.70
2018-03-04T05:01:02.555Z,19.70
2018-03-04T05:03:31.240Z,19.70
2018-03-04T05:05:59.927Z,19.60
2018-03-04T05:08:28.611Z,19.60
2018-03-04T05:10:57.336Z,19.60
2018-03-04T05:16:00.208Z,19.60
2018-03-04T05:18:28.888Z,19.70
2018-03-04T05:20:57.571Z,19.70
2018-03-04T05:23:26.271Z,19.70
2018-03-04T05:25:54.947Z,19.70
2018-03-04T05:28:23.240Z,19.70
2018-03-04T05:30:51.532Z,19.70
2018-03-04T05:33:20.141Z,19.70
2018-03-04T05:35:48.513Z,19.70
2018-03-04T05:38:16.909Z,19.70
2018-03-04T05:40:45.185Z,19.70
2018-03-04T05:43:13.499Z,19.60
2018-03-04T05:45:42.171Z,19.70
2018-03-04T05:48:10.847Z,19.60
2018-03-04T05:50:39.568Z,19.60
2018-03-04T05:53:07.847Z,19.60
2018-03-04T05:55:36.130Z,19.60
2018-03-04T05:58:04.428Z,19.60
2018-03-04T06:00:33.131Z,19.60
2018-03-04T06:03:01.644Z,19.60
2018-03-04T06:05:30.056Z,19.60
2018-03-04T06:07:58.528Z,19.50
2018-03-04T06:10:27.957Z,19.50
2018-03-04T06:12:56.480Z,19.50
2018-03-04T06:15:25.679Z,19.50
2018-03-04T06:17:54.584Z,19.50
2018-03-04T06:20:23.256Z,19.50
2018-03-04T06:22:52.055Z,19.30
2018-03-04T06:25:20.389Z,19.30
2018-03-04T06:27:48.704Z,19.30
2018-03-04T06:30:17.387Z,19.30
2018-03-04T06:32:46.067Z,19.30
2018-03-04T06:35:14.427Z,19.30
2018-03-04T06:37:42.723Z,19.20
2018-03-04T06:40:11.021Z,19.20
2018-03-04T06:42:39.313Z,19.20
2018-03-04T06:45:08.551Z,19.20
2018-03-04T06:47:36.831Z,19.10
2018-03-04T06:50:06.269Z,19.10
2018-03-04T06:52:35.235Z,19.10
2018-03-04T06:55:03.520Z,19.10
2018-03-04T06:57:31.835Z,19.10
2018-03-04T07:00:00.376Z,19.10
2018-03-04T07:02:28.651Z,19.00
2018-03-04T07:04:56.967Z,19.00
2018-03-04T07:07:25.275Z,19.00
2018-03-04T07:09:53.555Z,19.00
2018-03-04T07:12:21.852Z,19.90
2018-03-04T07:14:50.214Z,21.20
2018-03-04T07:17:18.822Z,20.80
2018-03-04T07:19:47.263Z,20.40
2018-03-04T07:22:15.575Z,20.00
2018-03-04T07:24:43.890Z,19.50
2018-03-04T07:27:12.175Z,19.00
2018-03-04T07:29:40.473Z,19.30
2018-03-04T07:32:09.086Z,19.20
2018-03-04T07:34:37.383Z,19.10
2018-03-04T07:37:06.074Z,19.00
2018-03-04T07:39:34.756Z,19.00
2018-03-04T07:42:03.447Z,18.90
2018-03-04T07:44:32.341Z,18.90
2018-03-04T07:47:01.036Z,18.90
2018-03-04T07:49:29.823Z,18.90
2018-03-04T07:51:58.135Z,18.90
2018-03-04T07:54:26.434Z,18.80
2018-03-04T07:56:54.735Z,19.80
2018-03-04T07:59:23.411Z,21.10
2018-03-04T08:01:51.732Z,21.10
2018-03-04T08:04:20.027Z,21.00
2018-03-04T08:06:48.324Z,22.20
2018-03-04T08:09:16.606Z,22.20
2018-03-04T08:11:44.890Z,22.00
2018-03-04T08:14:13.242Z,21.70
2018-03-04T08:16:41.578Z,21.50
2018-03-04T08:19:09.863Z,21.20
2018-03-04T08:21:38.494Z,21.00
2018-03-04T08:24:07.082Z,20.80
2018-03-04T08:26:47.254Z,20.60
2018-03-04T08:29:15.535Z,20.40
2018-03-04T08:31:43.830Z,20.20
2018-03-04T08:34:12.144Z,20.00
2018-03-04T08:36:40.530Z,19.70
2018-03-04T08:39:08.924Z,19.30
2018-03-04T08:41:37.233Z,18.90
2018-03-04T08:44:05.566Z,18.60
2018-03-04T08:46:33.871Z,18.40
2018-03-04T08:49:02.438Z,18.20
2018-03-04T08:51:31.145Z,29.40
2018-03-04T08:53:59.845Z,31.40
2018-03-04T08:56:28.135Z,31.40
2018-03-04T08:58:56.429Z,29.50
2018-03-04T09:01:24.740Z,37.40
2018-03-04T09:03:53.164Z,26.40
2018-03-04T09:06:21.576Z,23.90
2018-03-04T09:08:50.384Z,24.80
2018-03-04T09:11:19.692Z,35.60
2018-03-04T09:13:49.156Z,35.40
2018-03-04T09:16:17.544Z,31.10
2018-03-04T09:18:45.839Z,26.20
2018-03-04T09:21:14.138Z,22.90
2018-03-04T09:23:42.863Z,21.50
2018-03-04T09:26:11.243Z,21.50
2018-03-04T09:28:39.556Z,20.40
2018-03-04T09:31:07.872Z,21.40
2018-03-04T09:33:36.574Z,18.40
2018-03-04T09:36:04.929Z,18.40
2018-03-04T09:38:33.329Z,18.50
2018-03-04T09:41:01.687Z,17.20
2018-03-04T09:43:30.487Z,16.40
2018-03-04T09:45:58.788Z,16.40
2018-03-04T09:48:27.095Z,15.10
2018-03-04T09:50:55.465Z,15.00
2018-03-04T09:53:23.747Z,15.80
2018-03-04T09:55:52.084Z,15.70
2018-03-04T09:58:20.499Z,15.10
2018-03-04T10:00:49.348Z,14.20
2018-03-04T10:03:17.867Z,14.30
2018-03-04T10:05:46.174Z,13.40
2018-03-04T10:08:14.856Z,13.00
2018-03-04T10:10:43.162Z,12.90
2018-03-04T10:13:11.899Z,12.40
2018-03-04T10:15:40.242Z,13.10
2018-03-04T10:18:08.534Z,12.70
2018-03-04T10:20:36.892Z,13.30
2018-03-04T10:23:05.197Z,13.20
2018-03-04T10:25:33.567Z,12.00
2018-03-04T10:28:02.178Z,11.70
2018-03-04T10:30:30.487Z,11.50
2018-03-04T10:32:59.176Z,12.00
2018-03-04T10:35:27.565Z,11.90
2018-03-04T10:37:55.918Z,11.60
2018-03-04T10:40:25.493Z,11.80
2018-03-04T10:42:53.864Z,11.80
2018-03-04T10:45:22.212Z,12.50
2018-03-04T10:47:50.902Z,11.80
2018-03-04T10:50:19.208Z,11.80
2018-03-04T10:52:47.526Z,11.90
2018-03-04T10:55:15.863Z,12.40
2018-03-04T10:57:44.171Z,12.10
2018-03-04T11:00:12.518Z,11.60
2018-03-04T11:02:41.863Z,20.40
2018-03-04T11:05:10.569Z,15.40
2018-03-04T11:07:38.857Z,15.40
2018-03-04T11:10:07.260Z,14.20
2018-03-04T11:12:36.267Z,13.20
2018-03-04T11:15:04.586Z,12.60
2018-03-04T11:17:33.021Z,12.70
2018-03-04T11:20:01.329Z,11.80
2018-03-04T11:22:29.768Z,11.90
2018-03-04T11:24:58.154Z,11.00
2018-03-04T11:27:26.438Z,10.70
2018-03-04T11:29:54.752Z,10.70
2018-03-04T11:32:23.077Z,10.40
2018-03-04T11:34:51.363Z,10.90
2018-03-04T11:37:19.652Z,16.60
2018-03-04T11:39:47.973Z,17.60
2018-03-04T11:42:16.251Z,16.80
2018-03-04T11:44:44.564Z,15.70
2018-03-04T11:47:13.572Z,14.80
2018-03-04T11:49:41.878Z,14.20
2018-03-04T11:52:10.656Z,13.30
2018-03-04T11:54:39.325Z,13.30
2018-03-04T11:57:07.679Z,12.90
2018-03-04T11:59:36.011Z,12.60
2018-03-04T12:02:04.293Z,12.40
2018-03-04T12:04:32.714Z,12.20
2018-03-04T12:07:01.012Z,12.00
2018-03-04T12:09:29.352Z,11.80
2018-03-04T12:11:57.845Z,11.70
2018-03-04T12:14:26.854Z,11.60
2018-03-04T12:16:55.364Z,11.60
2018-03-04T12:19:25.350Z,11.50
2018-03-04T12:21:53.771Z,11.50
2018-03-04T12:24:22.211Z,11.50
2018-03-04T12:26:50.714Z,11.40
2018-03-04T12:29:19.681Z,11.30
2018-03-04T12:31:48.283Z,11.30
2018-03-04T12:34:16.731Z,11.30
2018-03-04T12:36:45.259Z,11.30
2018-03-04T12:39:13.720Z,11.30
2018-03-04T12:41:42.253Z,11.20
2018-03-04T12:44:10.753Z,11.20
2018-03-04T12:46:39.569Z,11.20
2018-03-04T12:49:08.319Z,11.20
2018-03-04T12:51:36.606Z,11.20
2018-03-04T12:54:04.893Z,11.20
2018-03-04T12:56:33.209Z,11.20
2018-03-04T12:59:01.897Z,11.20
2018-03-04T13:01:30.568Z,11.20
2018-03-04T13:03:59.275Z,11.20
2018-03-04T13:06:27.843Z,11.20
2018-03-04T13:08:56.532Z,11.20
2018-03-04T13:11:25.236Z,11.20
2018-03-04T13:13:53.523Z,11.20
2018-03-04T13:16:21.854Z,11.30
2018-03-04T13:18:50.140Z,11.30
2018-03-04T13:21:18.701Z,11.30
2018-03-04T13:23:47.036Z,11.40
2018-03-04T13:26:15.353Z,11.40
2018-03-04T13:28:43.769Z,11.30
2018-03-04T13:31:12.328Z,11.40
2018-03-04T13:33:40.660Z,11.30
2018-03-04T13:36:09.003Z,11.40
2018-03-04T13:38:37.514Z,11.30
2018-03-04T13:41:05.810Z,11.40
2018-03-04T13:43:34.185Z,11.40
2018-03-04T13:46:02.474Z,11.40
2018-03-04T13:48:31.079Z,11.50
2018-03-04T13:50:59.369Z,11.50
2018-03-04T13:53:27.700Z,11.50
2018-03-04T13:55:56.147Z,11.50
2018-03-04T13:58:24.428Z,11.60
2018-03-04T14:00:52.720Z,11.60
2018-03-04T14:03:21.024Z,11.70
2018-03-04T14:05:49.852Z,11.70
2018-03-04T14:08:18.513Z,11.80
2018-03-04T14:10:46.869Z,11.80
2018-03-04T14:13:15.176Z,11.90
2018-03-04T14:15:43.480Z,12.00
2018-03-04T14:18:11.774Z,12.00
2018-03-04T14:20:40.077Z,12.00
2018-03-04T14:23:08.679Z,12.10
2018-03-04T14:25:36.967Z,12.10
2018-03-04T14:28:05.254Z,12.20
2018-03-04T14:30:34.328Z,12.50
2018-03-04T14:33:02.616Z,12.50
2018-03-04T14:35:31.355Z,12.90
2018-03-04T14:37:59.975Z,12.90
2018-03-04T14:40:28.560Z,13.00
2018-03-04T14:42:56.864Z,13.20
2018-03-04T14:45:25.553Z,13.40
2018-03-04T14:47:53.863Z,13.40
2018-03-04T14:50:22.139Z,13.60
2018-03-04T14:52:50.421Z,13.70
2018-03-04T14:55:18.727Z,13.90
2018-03-04T14:57:47.082Z,14.10
2018-03-04T15:00:15.374Z,14.20
2018-03-04T15:02:43.711Z,14.30
2018-03-04T15:05:12.017Z,14.30
2018-03-04T15:07:40.619Z,14.30
2018-03-04T15:10:08.919Z,14.60
2018-03-04T15:12:37.673Z,14.70
2018-03-04T15:15:05.943Z,14.70
2018-03-04T15:17:34.311Z,14.80
2018-03-04T15:20:02.625Z,14.90
2018-03-04T15:22:30.911Z,14.90
2018-03-04T15:24:59.592Z,15.00
2018-03-04T15:27:28.311Z,15.10
2018-03-04T15:29:56.843Z,15.10
2018-03-04T15:32:25.160Z,15.10
2018-03-04T15:34:53.477Z,15.10
2018-03-04T15:37:21.767Z,15.30
2018-03-04T15:39:50.095Z,15.30
2018-03-04T15:42:18.399Z,15.40
2018-03-04T15:44:46.675Z,15.40
2018-03-04T15:47:15.008Z,15.50
2018-03-04T15:49:43.683Z,15.60
2018-03-04T15:52:12.375Z,15.60
2018-03-04T15:54:41.290Z,15.70
2018-03-04T15:57:09.603Z,15.70
2018-03-04T15:59:37.983Z,15.90
2018-03-04T16:02:06.271Z,16.00
2018-03-04T16:04:34.599Z,16.00
2018-03-04T16:07:02.894Z,16.10
2018-03-04T16:09:31.175Z,16.10
2018-03-04T16:11:59.489Z,16.10
2018-03-04T16:14:27.763Z,16.20
2018-03-04T16:16:56.119Z,16.30
2018-03-04T16:19:24.404Z,16.40
2018-03-04T16:21:52.715Z,16.50
2018-03-04T16:24:21.008Z,16.50
2018-03-04T16:26:49.711Z,16.60
2018-03-04T16:29:18.202Z,16.60
2018-03-04T16:31:46.535Z,16.60
2018-03-04T16:34:15.228Z,16.70
2018-03-04T16:36:43.967Z,16.60
2018-03-04T16:39:12.285Z,16.60
2018-03-04T16:41:40.966Z,16.80
2018-03-04T16:44:09.703Z,16.90
2018-03-04T16:46:38.015Z,16.90
2018-03-04T16:49:06.755Z,16.90
2018-03-04T16:51:35.053Z,16.90
2018-03-04T16:54:03.353Z,17.00
2018-03-04T16:56:31.728Z,17.00
2018-03-04T16:59:00.092Z,17.00
2018-03-04T17:01:29.544Z,17.10
2018-03-04T17:03:57.932Z,17.00
2018-03-04T17:06:26.230Z,17.20
2018-03-04T17:08:54.516Z,17.20
2018-03-04T17:11:22.828Z,17.20
2018-03-04T17:13:51.143Z,17.20
2018-03-04T17:16:19.443Z,17.20
2018-03-04T17:18:47.735Z,17.20
2018-03-04T17:21:16.037Z,17.20
2018-03-04T17:23:44.332Z,17.20
2018-03-04T17:26:12.619Z,17.30
2018-03-04T17:28:41.201Z,17.30
2018-03-04T17:31:09.513Z,17.30
2018-03-04T17:33:37.807Z,17.30
2018-03-04T17:36:06.099Z,17.40
2018-03-04T17:38:34.455Z,17.40
2018-03-04T17:41:02.754Z,17.50
2018-03-04T17:43:31.072Z,17.50
2018-03-04T17:45:59.392Z,17.50
2018-03-04T17:48:27.758Z,17.50
2018-03-04T17:50:55.997Z,17.50
2018-03-04T17:53:24.314Z,17.50
2018-03-04T17:55:52.691Z,17.60
2018-03-04T17:58:21.005Z,18.70
2018-03-04T18:00:50.387Z,18.30
2018-03-04T18:03:18.677Z,18.30
2018-03-04T18:05:46.974Z,18.20
2018-03-04T18:08:15.623Z,18.20
2018-03-04T18:10:43.915Z,18.20
2018-03-04T18:13:12.595Z,18.30
2018-03-04T18:15:40.891Z,18.30
2018-03-04T18:18:09.598Z,18.30
2018-03-04T18:20:37.882Z,18.30
2018-03-04T18:23:06.166Z,18.30
2018-03-04T18:25:34.565Z,18.30
2018-03-04T18:28:02.960Z,18.20
2018-03-04T18:30:31.205Z,18.30
2018-03-04T18:32:59.488Z,18.30
2018-03-04T18:35:27.851Z,18.30
2018-03-04T18:37:56.207Z,18.30
2018-03-04T18:40:24.837Z,18.30
2018-03-04T18:42:53.881Z,19.80
2018-03-04T18:45:23.103Z,19.90
2018-03-04T18:47:51.732Z,29.70
2018-03-04T18:50:20.337Z,29.10
2018-03-04T18:52:48.659Z,26.40
2018-03-04T18:55:16.962Z,25.00
2018-03-04T18:57:45.561Z,22.20
2018-03-04T19:00:16.113Z,22.40
2018-03-04T19:02:44.470Z,21.40
2018-03-04T19:05:12.788Z,20.60
2018-03-04T19:07:43.765Z,21.00
2018-03-04T19:10:12.140Z,20.60
2018-03-04T19:12:40.635Z,21.20
2018-03-04T19:15:14.144Z,20.20
2018-03-04T19:17:42.514Z,19.90
2018-03-04T19:20:10.810Z,19.90
2018-03-04T19:22:39.511Z,25.70
2018-03-04T19:25:07.818Z,25.70
2018-03-04T19:27:36.098Z,25.00
2018-03-04T19:30:04.503Z,24.70
2018-03-04T19:32:32.840Z,24.30
2018-03-04T19:35:01.148Z,24.90
2018-03-04T19:37:29.482Z,24.00
2018-03-04T19:39:57.779Z,23.60
2018-03-04T19:42:26.120Z,23.30
2018-03-04T19:44:54.437Z,23.00
2018-03-04T19:47:22.757Z,22.70
2018-03-04T19:49:51.033Z,22.30
2018-03-04T19:52:19.734Z,22.20
2018-03-04T19:54:48.053Z,22.20
2018-03-04T19:57:16.399Z,22.20
2018-03-04T19:59:44.680Z,22.40
2018-03-04T20:02:13.201Z,22.40
2018-03-04T20:04:41.559Z,23.20
2018-03-04T20:07:09.923Z,22.90
2018-03-04T20:09:38.251Z,22.40
2018-03-04T20:12:07.242Z,21.60
2018-03-04T20:14:35.818Z,21.60
2018-03-04T20:17:04.877Z,21.30
2018-03-04T20:19:33.312Z,21.00
2018-03-04T20:22:01.682Z,20.80
2018-03-04T20:24:30.125Z,20.60
2018-03-04T20:26:58.580Z,20.90
2018-03-04T20:29:26.914Z,21.20
2018-03-04T20:31:55.420Z,21.10
2018-03-04T20:34:24.148Z,21.00
2018-03-04T20:36:52.451Z,21.00
2018-03-04T20:39:20.759Z,20.90
2018-03-04T20:41:49.443Z,20.80
2018-03-04T20:44:18.163Z,20.70
2018-03-04T20:46:46.447Z,20.70
2018-03-04T20:49:14.726Z,20.60
2018-03-04T20:51:43.046Z,20.60
2018-03-04T20:54:11.561Z,20.50
2018-03-04T20:56:39.866Z,20.40
2018-03-04T20:59:09.099Z,20.40
2018-03-04T21:01:37.399Z,20.40
2018-03-04T21:04:06.345Z,20.30
2018-03-04T21:06:34.688Z,21.60
2018-03-04T21:09:03.209Z,22.00
2018-03-04T21:11:31.519Z,22.70
2018-03-04T21:13:59.908Z,22.80
2018-03-04T21:16:28.207Z,22.50
2018-03-04T21:18:56.516Z,22.20
2018-03-04T21:21:24.839Z,22.10
2018-03-04T21:23:53.143Z,21.90
2018-03-04T21:26:21.463Z,21.80
2018-03-04T21:28:49.785Z,21.60
2018-03-04T21:31:18.083Z,21.40
2018-03-04T21:33:46.523Z,21.30
2018-03-04T21:36:15.242Z,21.10
2018-03-04T21:38:43.607Z,21.10
2018-03-04T21:41:11.923Z,21.00
2018-03-04T21:43:40.530Z,21.00
2018-03-04T21:46:08.834Z,20.90
2018-03-04T21:48:37.149Z,20.80
2018-03-04T21:51:05.472Z,20.70
2018-03-04T21:53:33.779Z,20.70
2018-03-04T21:56:02.119Z,51.10
2018-03-04T21:58:30.412Z,52.90
2018-03-04T22:00:59.091Z,42.50
2018-03-04T22:03:27.788Z,40.30
2018-03-04T22:05:56.799Z,40.30
2018-03-04T22:08:25.118Z,36.90
2018-03-04T22:10:53.488Z,34.70
2018-03-04T22:13:21.795Z,32.00
2018-03-04T22:15:50.505Z,29.10
2018-03-04T22:18:18.803Z,29.10
2018-03-04T22:20:47.090Z,28.30
2018-03-04T22:23:15.398Z,27.70
2018-03-04T22:25:43.726Z,27.10
2018-03-04T22:28:12.060Z,26.70
2018-03-04T22:30:40.637Z,26.20
2018-03-04T22:33:09.007Z,25.80
2018-03-04T22:35:37.295Z,25.50
2018-03-04T22:38:05.583Z,25.20
2018-03-04T22:40:34.280Z,24.70
2018-03-04T22:43:02.957Z,24.50
2018-03-04T22:45:31.307Z,24.40
2018-03-04T22:47:59.588Z,24.20
2018-03-04T22:50:27.935Z,24.00
2018-03-04T22:52:56.252Z,23.70
2018-03-04T22:55:24.546Z,23.50
2018-03-04T22:57:53.121Z,23.40
2018-03-04T23:00:21.830Z,23.20
2018-03-04T23:02:51.234Z,23.20
2018-03-04T23:05:19.589Z,23.10
2018-03-04T23:07:48.279Z,22.80
2018-03-04T23:10:16.961Z,22.60
2018-03-04T23:12:45.634Z,22.60
2018-03-04T23:15:14.229Z,22.60
2018-03-04T23:17:43.743Z,22.50
2018-03-04T23:20:12.443Z,22.40
2018-03-04T23:22:40.736Z,22.40
2018-03-04T23:25:09.015Z,22.30
2018-03-04T23:27:37.324Z,22.50
2018-03-04T23:30:05.616Z,22.30
2018-03-04T23:32:33.891Z,22.30
2018-03-04T23:35:02.367Z,22.10
2018-03-04T23:37:30.650Z,22.30
2018-03-04T23:39:58.971Z,22.00
2018-03-04T23:42:27.322Z,21.90
2018-03-04T23:44:55.996Z,21.80
2018-03-04T23:47:24.679Z,21.80
2018-03-04T23:49:52.983Z,21.80
2018-03-04T23:52:21.275Z,21.80
2018-03-04T23:54:49.557Z,21.90
2018-03-04T23:57:17.859Z,21.80
2018-03-04T23:59:46.138Z,21.70
